createdAt,value
2022-10-22T00:01:50.401Z,1.88
2022-10-22T00:05:32.385Z,1.40
2022-10-22T00:09:15.071Z,1.58
2022-10-22T00:12:57.137Z,1.50
2022-10-22T00:16:39.474Z,2.10
2022-10-22T00:20:22.838Z,1.80
2022-10-22T00:24:05.261Z,1.75
2022-10-22T00:27:47.260Z,1.85
2022-10-22T00:31:29.490Z,1.40
2022-10-22T00:35:11.496Z,1.30
2022-10-22T00:38:53.556Z,1.30
2022-10-22T00:42:35.792Z,1.30
2022-10-22T00:46:17.783Z,1.88
2022-10-22T00:50:01.136Z,1.30
2022-10-22T00:53:50.502Z,1.35
2022-10-22T00:57:34.182Z,1.30
2022-10-22T01:01:31.668Z,1.05
2022-10-22T01:05:13.878Z,2.00
2022-10-22T01:09:23.101Z,16.43
2022-10-22T01:13:38.176Z,10.30
2022-10-22T01:17:33.367Z,1.45
2022-10-22T01:21:27.332Z,1.60
2022-10-22T01:25:13.295Z,1.02
2022-10-22T01:28:58.180Z,1.20
2022-10-22T01:32:48.472Z,1.85
2022-10-22T01:36:35.776Z,1.10
2022-10-22T01:40:19.548Z,1.20
2022-10-22T01:44:01.430Z,1.45
2022-10-22T01:48:12.443Z,1.10
2022-10-22T01:52:53.527Z,0.82
2022-10-22T01:56:41.300Z,1.38
2022-10-22T02:00:23.864Z,1.20
2022-10-22T02:04:23.977Z,1.13
2022-10-22T02:08:20.426Z,1.00
2022-10-22T02:12:07.190Z,1.00
2022-10-22T02:15:51.847Z,0.93
2022-10-22T02:19:38.461Z,0.80
2022-10-22T02:23:22.293Z,0.90
2022-10-22T02:27:16.883Z,1.20
2022-10-22T02:31:24.280Z,0.93
2022-10-22T02:35:07.552Z,1.25
2022-10-22T02:38:51.800Z,1.10
2022-10-22T02:42:34.972Z,1.02
2022-10-22T02:46:16.833Z,1.00
2022-10-22T02:49:58.977Z,0.80
2022-10-22T02:53:40.839Z,1.53
2022-10-22T02:57:22.760Z,1.10
2022-10-22T03:01:04.810Z,0.77
2022-10-22T03:04:46.716Z,1.10
2022-10-22T03:08:28.719Z,0.80
2022-10-22T03:12:10.560Z,0.93
2022-10-22T03:15:52.886Z,1.10
2022-10-22T03:19:34.802Z,1.10
2022-10-22T03:23:19.896Z,1.80
2022-10-22T03:27:02.165Z,1.02
2022-10-22T03:30:44.071Z,0.90
2022-10-22T03:34:25.916Z,1.35
2022-10-22T03:38:08.096Z,1.30
2022-10-22T03:41:51.304Z,1.10
2022-10-22T03:45:33.146Z,0.80
2022-10-22T03:49:15.079Z,1.85
2022-10-22T03:52:58.260Z,0.90
2022-10-22T03:56:40.259Z,0.82
2022-10-22T04:00:22.178Z,1.10
2022-10-22T04:04:04.099Z,0.98
2022-10-22T04:07:45.960Z,1.27
2022-10-22T04:11:27.818Z,0.98
2022-10-22T04:15:09.977Z,1.10
2022-10-22T04:18:51.822Z,1.00
2022-10-22T04:22:35.498Z,0.88
2022-10-22T04:26:18.462Z,1.50
2022-10-22T04:30:00.373Z,1.10
2022-10-22T04:33:43.207Z,1.20
2022-10-22T04:37:25.028Z,1.38
2022-10-22T04:41:19.769Z,1.70
2022-10-22T04:45:01.688Z,1.50
2022-10-22T04:48:45.380Z,1.58
2022-10-22T04:52:27.270Z,1.40
2022-10-22T04:56:19.942Z,1.43
2022-10-22T05:00:01.988Z,1.20
2022-10-22T05:03:44.202Z,1.42
2022-10-22T05:07:26.411Z,1.60
2022-10-22T05:11:20.110Z,1.08
2022-10-22T05:15:02.512Z,1.25
2022-10-22T05:18:44.940Z,1.80
2022-10-22T05:22:26.844Z,1.47
2022-10-22T05:26:10.100Z,1.25
2022-10-22T05:29:52.043Z,1.20
2022-10-22T05:33:34.871Z,1.50
2022-10-22T05:37:16.700Z,1.45
2022-10-22T05:41:12.251Z,1.48
2022-10-22T05:44:54.211Z,1.63
2022-10-22T05:48:37.362Z,1.50
2022-10-22T05:52:19.167Z,1.90
2022-10-22T05:56:03.104Z,2.20
2022-10-22T05:59:45.159Z,1.40
2022-10-22T06:03:28.924Z,1.48
2022-10-22T06:07:15.694Z,1.38
2022-10-22T06:10:57.850Z,1.40
2022-10-22T06:14:39.760Z,1.65
2022-10-22T06:18:21.691Z,1.55
2022-10-22T06:22:05.166Z,1.55
2022-10-22T06:25:56.853Z,1.92
2022-10-22T06:29:38.744Z,1.30
2022-10-22T06:33:20.626Z,1.85
2022-10-22T06:37:02.459Z,1.77
2022-10-22T06:40:45.093Z,1.83
2022-10-22T06:44:26.901Z,1.67
2022-10-22T06:48:08.786Z,1.57
2022-10-22T06:51:52.543Z,1.50
2022-10-22T06:55:35.958Z,1.42
2022-10-22T06:59:17.797Z,1.30
2022-10-22T07:03:00.045Z,1.50
2022-10-22T07:06:42.100Z,1.58
2022-10-22T07:10:26.021Z,1.90
2022-10-22T07:14:12.680Z,1.33
2022-10-22T07:17:54.550Z,2.10
2022-10-22T07:21:36.700Z,1.48
2022-10-22T07:25:18.558Z,1.47
2022-10-22T07:29:01.096Z,1.75
2022-10-22T07:32:42.995Z,1.60
2022-10-22T07:36:24.927Z,2.05
2022-10-22T07:40:07.548Z,1.73
2022-10-22T07:43:50.812Z,2.05
2022-10-22T07:47:39.076Z,1.73
2022-10-22T07:51:27.911Z,1.37
2022-10-22T07:55:11.414Z,1.42
2022-10-22T07:58:59.444Z,1.67
2022-10-22T08:02:43.017Z,2.50
2022-10-22T08:10:44.007Z,1.55
2022-10-22T08:14:39.769Z,2.03
2022-10-22T08:18:21.651Z,1.70
2022-10-22T08:22:04.189Z,1.65
2022-10-22T08:26:18.851Z,1.83
2022-10-22T08:33:59.767Z,1.60
2022-10-22T08:37:41.963Z,2.15
2022-10-22T08:41:53.729Z,1.60
2022-10-22T08:46:15.302Z,1.20
2022-10-22T08:49:59.676Z,1.92
2022-10-22T08:54:05.646Z,1.83
2022-10-22T08:58:06.189Z,1.92
2022-10-22T09:06:44.472Z,1.75
2022-10-22T09:14:40.461Z,1.85
2022-10-22T09:22:54.054Z,1.80
2022-10-22T09:31:32.342Z,1.77
2022-10-22T09:35:15.584Z,2.30
2022-10-22T09:43:50.105Z,1.98
2022-10-22T09:48:00.673Z,2.00
2022-10-22T09:56:42.103Z,1.55
2022-10-22T10:00:34.182Z,1.65
2022-10-22T10:12:59.792Z,2.42
2022-10-22T10:16:59.140Z,2.63
2022-10-22T10:22:00.611Z,1.30
2022-10-22T10:25:58.315Z,1.83
2022-10-22T10:35:29.457Z,2.33
2022-10-22T10:48:27.608Z,2.00
2022-10-22T10:52:41.967Z,1.67
2022-10-22T11:00:51.861Z,2.35
2022-10-22T11:09:52.619Z,1.42
2022-10-22T11:14:22.647Z,1.95
2022-10-22T11:32:26.509Z,1.60
2022-10-22T11:36:23.873Z,3.47
2022-10-22T11:40:49.780Z,1.92
2022-10-22T11:44:47.050Z,1.70
2022-10-22T12:01:25.448Z,1.63
2022-10-22T12:09:18.734Z,2.05
2022-10-22T12:17:29.572Z,1.63
2022-10-22T12:21:22.395Z,1.80
2022-10-22T12:29:26.843Z,1.65
2022-10-22T12:33:46.595Z,2.03
2022-10-22T12:37:44.455Z,1.40
2022-10-22T12:41:58.765Z,1.50
2022-10-22T12:46:09.794Z,2.17
2022-10-22T12:54:39.869Z,1.37
2022-10-22T12:58:33.059Z,2.20
2022-10-22T13:02:33.387Z,2.13
2022-10-22T13:07:33.962Z,2.05
2022-10-22T13:11:34.840Z,1.73
2022-10-22T13:15:33.886Z,1.52
2022-10-22T13:23:38.632Z,1.87
2022-10-22T13:27:20.643Z,1.63
2022-10-22T13:31:12.991Z,1.90
2022-10-22T13:39:24.760Z,1.65
2022-10-22T13:43:06.827Z,2.15
2022-10-22T13:46:59.652Z,1.55
2022-10-22T13:55:29.057Z,1.42
2022-10-22T13:59:57.405Z,2.13
2022-10-22T14:07:34.557Z,2.38
2022-10-22T14:11:17.943Z,1.65
2022-10-22T14:15:20.019Z,1.70
2022-10-22T14:23:40.525Z,1.42
2022-10-22T14:27:32.141Z,2.30
2022-10-22T14:35:25.734Z,1.90
2022-10-22T14:39:21.899Z,2.53
2022-10-22T14:43:23.828Z,1.93
2022-10-22T14:47:16.273Z,1.77
2022-10-22T14:55:44.132Z,2.90
2022-10-22T14:59:41.876Z,1.95
2022-10-22T15:08:23.951Z,2.33
2022-10-22T15:12:06.203Z,2.28
2022-10-22T15:15:59.543Z,1.63
2022-10-22T15:27:54.882Z,1.83
2022-10-22T15:31:57.968Z,1.95
2022-10-22T15:35:42.871Z,2.50
2022-10-22T15:39:57.185Z,1.80
2022-10-22T15:43:39.424Z,2.72
2022-10-22T15:47:31.551Z,2.35
2022-10-22T15:55:33.955Z,2.20
2022-10-22T16:03:26.626Z,2.37
2022-10-22T16:07:15.405Z,2.95
2022-10-22T16:15:51.159Z,2.50
2022-10-22T16:19:40.005Z,3.65
2022-10-22T16:28:23.683Z,2.05
2022-10-22T16:40:37.195Z,1.83
2022-10-22T16:44:25.372Z,2.23
2022-10-22T16:53:00.619Z,2.28
2022-10-22T16:56:49.495Z,2.72
2022-10-22T17:00:31.964Z,2.28
2022-10-22T17:04:13.812Z,2.53
2022-10-22T17:07:55.916Z,2.92
2022-10-22T17:11:40.237Z,2.00
2022-10-22T17:15:24.411Z,2.45
2022-10-22T17:19:06.951Z,3.25
2022-10-22T17:22:49.715Z,2.77
2022-10-22T17:26:33.383Z,3.63
2022-10-22T17:30:23.442Z,3.45
2022-10-22T17:34:11.372Z,3.88
2022-10-22T17:37:53.255Z,2.60
2022-10-22T17:41:36.766Z,3.67
2022-10-22T17:45:18.743Z,2.67
2022-10-22T17:49:03.716Z,3.77
2022-10-22T17:52:45.607Z,3.22
2022-10-22T17:56:30.240Z,2.63
2022-10-22T18:00:14.036Z,2.43
2022-10-22T18:04:00.311Z,2.55
2022-10-22T18:07:42.149Z,2.50
2022-10-22T18:11:26.641Z,2.65
2022-10-22T18:15:08.853Z,2.25
2022-10-22T18:18:53.431Z,2.47
2022-10-22T18:22:36.054Z,2.75
2022-10-22T18:26:20.352Z,2.90
2022-10-22T18:30:05.622Z,2.53
2022-10-22T18:33:48.005Z,2.90
2022-10-22T18:37:30.802Z,2.73
2022-10-22T18:41:13.930Z,2.40
2022-10-22T18:44:55.819Z,3.35
2022-10-22T18:48:37.770Z,2.40
2022-10-22T18:52:19.579Z,2.10
2022-10-22T18:56:05.490Z,2.22
2022-10-22T18:59:47.345Z,2.75
2022-10-22T19:03:29.151Z,3.40
2022-10-22T19:07:12.303Z,2.70
2022-10-22T19:10:54.156Z,3.08
2022-10-22T19:14:36.504Z,3.40
2022-10-22T19:18:19.120Z,2.92
2022-10-22T19:22:00.997Z,2.85
2022-10-22T19:25:42.857Z,3.42
2022-10-22T19:29:25.006Z,2.85
2022-10-22T19:33:07.871Z,3.40
2022-10-22T19:36:51.906Z,3.42
2022-10-22T19:40:33.806Z,3.20
2022-10-22T19:44:15.864Z,3.20
2022-10-22T19:47:57.730Z,3.05
2022-10-22T19:51:40.269Z,3.20
2022-10-22T19:55:22.124Z,2.92
2022-10-22T19:59:05.229Z,3.00
2022-10-22T20:02:47.039Z,3.85
2022-10-22T20:06:29.825Z,3.00
2022-10-22T20:10:12.099Z,3.80
2022-10-22T20:13:54.535Z,3.80
2022-10-22T20:17:36.423Z,3.60
2022-10-22T20:21:20.196Z,4.50
2022-10-22T20:25:02.050Z,4.15
2022-10-22T20:28:44.054Z,4.03
2022-10-22T20:32:27.190Z,3.63
2022-10-22T20:36:18.954Z,3.58
2022-10-22T20:40:00.799Z,3.83
2022-10-22T20:43:46.761Z,3.60
2022-10-22T20:47:39.206Z,3.80
2022-10-22T20:51:30.984Z,3.88
2022-10-22T20:59:05.423Z,4.05
2022-10-22T21:02:47.364Z,3.85
2022-10-22T21:06:29.844Z,4.30
2022-10-22T21:10:11.681Z,4.50
2022-10-22T21:13:53.701Z,4.80
2022-10-22T21:17:35.796Z,4.95
2022-10-22T21:21:17.716Z,5.07
2022-10-22T21:24:59.733Z,4.75
2022-10-22T21:28:41.593Z,5.30
2022-10-22T21:32:23.510Z,5.60
2022-10-22T21:36:06.792Z,5.57
2022-10-22T21:39:49.175Z,5.30
2022-10-22T21:43:30.988Z,5.77
2022-10-22T21:47:12.914Z,5.22
2022-10-22T21:50:54.733Z,5.63
2022-10-22T21:54:37.514Z,5.22
2022-10-22T21:58:19.451Z,5.18
2022-10-22T22:02:04.958Z,5.13
2022-10-22T22:05:48.203Z,5.25
2022-10-22T22:09:30.055Z,4.57
2022-10-22T22:13:11.971Z,5.15
2022-10-22T22:16:53.877Z,4.60
2022-10-22T22:20:37.404Z,4.70
2022-10-22T22:24:19.240Z,4.50
2022-10-22T22:28:01.071Z,4.55
2022-10-22T22:31:43.664Z,4.70
2022-10-22T22:35:25.872Z,5.60
2022-10-22T22:39:10.614Z,5.15
2022-10-22T22:42:52.516Z,5.45
2022-10-22T22:46:35.238Z,4.97
2022-10-22T22:50:17.239Z,5.00
2022-10-22T22:54:00.298Z,5.25
2022-10-22T22:57:42.212Z,5.87
2022-10-22T23:01:26.543Z,5.30
2022-10-22T23:05:08.714Z,5.53
2022-10-22T23:08:52.246Z,5.47
2022-10-22T23:12:34.170Z,5.13
2022-10-22T23:16:21.366Z,4.63
2022-10-22T23:20:03.441Z,4.72
2022-10-22T23:23:47.202Z,5.13
2022-10-22T23:27:29.032Z,4.93
2022-10-22T23:31:13.645Z,4.80
2022-10-22T23:34:55.499Z,4.33
2022-10-22T23:38:38.944Z,4.45
2022-10-22T23:42:20.771Z,4.70
2022-10-22T23:46:06.962Z,4.53
2022-10-22T23:49:48.797Z,4.00
2022-10-22T23:53:31.162Z,4.35
2022-10-22T23:57:12.998Z,4.47
